createdAt,value
2019-01-25T00:00:29.445Z,78.70
2019-01-25T00:02:57.954Z,78.59
2019-01-25T00:05:26.532Z,78.95
2019-01-25T00:07:54.898Z,78.56
2019-01-25T00:10:23.331Z,78.88
2019-01-25T00:12:51.761Z,79.09
2019-01-25T00:15:20.416Z,78.32
2019-01-25T00:17:48.946Z,77.77
2019-01-25T00:20:17.624Z,77.79
2019-01-25T00:22:45.969Z,78.14
2019-01-25T00:25:14.516Z,77.91
2019-01-25T00:27:42.979Z,78.11
2019-01-25T00:30:16.784Z,77.93
2019-01-25T00:32:45.329Z,79.19
2019-01-25T00:35:13.762Z,80.05
2019-01-25T00:37:42.177Z,80.18
2019-01-25T00:40:13.778Z,80.74
2019-01-25T00:42:42.252Z,80.06
2019-01-25T00:45:11.762Z,80.05
2019-01-25T00:47:40.299Z,78.60
2019-01-25T00:50:18.004Z,78.06
2019-01-25T00:52:46.475Z,78.06
2019-01-25T00:55:14.915Z,78.18
2019-01-25T00:57:43.315Z,77.75
2019-01-25T01:00:26.215Z,77.23
2019-01-25T01:02:54.571Z,78.12
2019-01-25T01:05:22.989Z,77.76
2019-01-25T01:07:51.861Z,78.69
2019-01-25T01:10:21.240Z,78.49
2019-01-25T01:12:49.637Z,77.83
2019-01-25T01:15:19.217Z,77.20
2019-01-25T01:17:47.734Z,77.75
2019-01-25T01:20:19.191Z,77.45
2019-01-25T01:22:47.825Z,77.47
2019-01-25T01:25:17.281Z,77.35
2019-01-25T01:27:45.707Z,78.76
2019-01-25T01:30:22.260Z,78.55
2019-01-25T01:32:50.849Z,79.61
2019-01-25T01:35:19.408Z,78.90
2019-01-25T01:37:48.129Z,78.49
2019-01-25T01:40:22.294Z,78.77
2019-01-25T01:42:50.855Z,78.17
2019-01-25T01:45:19.312Z,79.52
2019-01-25T01:47:47.727Z,78.63
2019-01-25T01:50:18.417Z,78.22
2019-01-25T01:52:48.860Z,78.59
2019-01-25T01:55:17.302Z,77.84
2019-01-25T01:57:45.656Z,78.34
2019-01-25T02:00:17.529Z,78.29
2019-01-25T02:02:45.998Z,78.68
2019-01-25T02:05:14.409Z,78.22
2019-01-25T02:07:42.703Z,77.11
2019-01-25T02:10:34.730Z,76.82
2019-01-25T02:13:03.139Z,77.18
2019-01-25T02:15:31.740Z,78.63
2019-01-25T02:18:00.151Z,78.28
2019-01-25T02:20:29.663Z,77.57
2019-01-25T02:22:58.162Z,76.99
2019-01-25T02:25:26.668Z,78.29
2019-01-25T02:27:55.085Z,78.77
2019-01-25T02:30:25.649Z,77.63
2019-01-25T02:32:54.134Z,77.62
2019-01-25T02:35:22.481Z,77.47
2019-01-25T02:37:50.926Z,77.86
2019-01-25T02:40:21.625Z,77.56
2019-01-25T02:42:49.997Z,77.65
2019-01-25T02:45:18.273Z,77.33
2019-01-25T02:47:46.887Z,76.92
2019-01-25T02:50:17.784Z,77.32
2019-01-25T02:52:46.165Z,77.32
2019-01-25T02:55:16.815Z,77.10
2019-01-25T02:57:45.408Z,76.61
2019-01-25T03:00:25.630Z,76.90
2019-01-25T03:02:55.053Z,76.96
2019-01-25T03:05:24.715Z,77.21
2019-01-25T03:07:53.187Z,77.79
2019-01-25T03:10:28.431Z,77.86
2019-01-25T03:12:52.796Z,77.87
2019-01-25T03:15:24.073Z,77.23
2019-01-25T03:17:52.580Z,77.52
2019-01-25T03:20:21.011Z,76.65
2019-01-25T03:22:49.494Z,77.38
2019-01-25T03:25:20.909Z,77.48
2019-01-25T03:27:49.366Z,77.34
2019-01-25T03:30:20.168Z,77.93
2019-01-25T03:32:48.647Z,78.27
2019-01-25T03:35:20.052Z,78.54
2019-01-25T03:37:48.441Z,78.68
2019-01-25T03:40:20.081Z,77.99
2019-01-25T03:42:48.902Z,77.83
2019-01-25T03:45:17.501Z,77.37
2019-01-25T03:47:45.828Z,76.88
2019-01-25T03:50:20.029Z,76.94
2019-01-25T03:52:48.307Z,77.36
2019-01-25T03:55:16.927Z,76.81
2019-01-25T03:57:45.253Z,76.75
2019-01-25T04:00:22.298Z,77.12
2019-01-25T04:02:50.701Z,77.29
2019-01-25T04:05:19.310Z,77.76
2019-01-25T04:07:47.792Z,78.80
2019-01-25T04:10:22.363Z,78.30
2019-01-25T04:12:50.742Z,77.51
2019-01-25T04:15:28.468Z,77.20
2019-01-25T04:17:56.790Z,77.25
2019-01-25T04:20:25.318Z,77.39
2019-01-25T04:22:53.591Z,78.25
2019-01-25T04:25:23.193Z,78.86
2019-01-25T04:27:51.906Z,78.85
2019-01-25T04:30:25.538Z,79.12
2019-01-25T04:32:53.985Z,79.57
2019-01-25T04:35:22.368Z,77.67
2019-01-25T04:37:50.823Z,78.77
2019-01-25T04:40:19.510Z,78.93
2019-01-25T04:42:47.883Z,78.88
2019-01-25T04:45:19.526Z,78.24
2019-01-25T04:47:47.957Z,79.08
2019-01-25T04:50:19.487Z,79.16
2019-01-25T04:52:48.029Z,78.59
2019-01-25T04:55:19.558Z,77.72
2019-01-25T04:57:49.038Z,79.06
2019-01-25T05:00:20.615Z,78.32
2019-01-25T05:03:00.359Z,79.12
2019-01-25T05:05:29.335Z,79.02
2019-01-25T05:08:16.423Z,79.43
2019-01-25T05:10:44.815Z,78.92
2019-01-25T05:13:13.176Z,79.64
2019-01-25T05:15:41.666Z,79.99
2019-01-25T05:18:10.811Z,80.93
2019-01-25T05:20:39.939Z,80.15
2019-01-25T05:23:08.504Z,79.94
2019-01-25T05:25:37.150Z,80.01
2019-01-25T05:28:14.804Z,80.24
2019-01-25T05:30:59.710Z,80.07
2019-01-25T05:33:28.135Z,80.32
2019-01-25T05:35:56.622Z,79.63
2019-01-25T05:38:25.130Z,79.30
2019-01-25T05:40:55.379Z,79.53
2019-01-25T05:43:25.638Z,79.62
2019-01-25T05:45:54.269Z,79.33
2019-01-25T05:48:26.595Z,79.27
2019-01-25T05:50:55.029Z,78.28
2019-01-25T05:53:23.346Z,78.92
2019-01-25T05:55:51.747Z,79.18
2019-01-25T05:58:20.140Z,79.59
2019-01-25T06:00:48.506Z,80.18
2019-01-25T06:03:16.934Z,79.51
2019-01-25T06:05:45.375Z,79.27
2019-01-25T06:08:32.515Z,79.78
2019-01-25T06:11:03.031Z,80.42
2019-01-25T06:13:31.454Z,79.42
2019-01-25T06:15:59.934Z,79.12
2019-01-25T06:18:28.278Z,77.48
2019-01-25T06:20:58.957Z,79.14
2019-01-25T06:23:27.307Z,79.30
2019-01-25T06:25:57.977Z,77.98
2019-01-25T06:28:26.320Z,76.42
2019-01-25T06:30:54.690Z,77.53
2019-01-25T06:33:23.185Z,77.53
2019-01-25T06:35:51.473Z,77.95
2019-01-25T06:38:19.798Z,77.84
2019-01-25T06:40:48.212Z,77.37
2019-01-25T06:43:16.784Z,77.19
2019-01-25T06:45:45.218Z,77.51
2019-01-25T06:48:13.673Z,77.31
2019-01-25T06:50:42.087Z,78.43
2019-01-25T06:53:10.528Z,77.53
2019-01-25T06:55:38.981Z,78.23
2019-01-25T06:58:08.949Z,78.56
2019-01-25T07:00:51.035Z,78.76
2019-01-25T07:03:19.343Z,78.82
2019-01-25T07:05:47.810Z,79.53
2019-01-25T07:08:17.767Z,79.31
2019-01-25T07:10:46.211Z,78.60
2019-01-25T07:13:14.623Z,78.81
2019-01-25T07:15:43.023Z,78.93
2019-01-25T07:18:11.592Z,78.87
2019-01-25T07:20:40.002Z,78.50
2019-01-25T07:23:08.439Z,79.05
2019-01-25T07:25:36.903Z,77.96
2019-01-25T07:28:05.347Z,77.12
2019-01-25T07:30:33.738Z,77.47
2019-01-25T07:33:02.330Z,77.53
2019-01-25T07:35:30.877Z,77.18
2019-01-25T07:37:59.211Z,77.86
2019-01-25T07:40:27.719Z,77.66
2019-01-25T07:42:56.111Z,77.75
2019-01-25T07:45:24.487Z,78.70
2019-01-25T07:47:52.980Z,76.88
2019-01-25T07:50:21.430Z,76.98
2019-01-25T07:52:49.810Z,77.20
2019-01-25T07:55:18.201Z,77.63
2019-01-25T07:57:46.570Z,76.91
2019-01-25T08:00:16.681Z,77.98
2019-01-25T08:02:45.299Z,78.45
2019-01-25T08:05:13.700Z,78.72
2019-01-25T08:07:42.095Z,78.63
2019-01-25T08:10:13.958Z,78.91
2019-01-25T08:12:42.387Z,78.50
2019-01-25T08:15:14.090Z,78.54
2019-01-25T08:17:42.651Z,78.54
2019-01-25T08:20:13.641Z,79.06
2019-01-25T08:22:42.017Z,79.18
2019-01-25T08:25:10.519Z,78.11
2019-01-25T08:27:38.985Z,78.73
2019-01-25T08:30:13.649Z,76.75
2019-01-25T08:32:42.051Z,77.61
2019-01-25T08:35:12.800Z,77.29
2019-01-25T08:37:41.245Z,77.20
2019-01-25T08:40:12.986Z,77.64
2019-01-25T08:42:41.423Z,78.00
2019-01-25T08:45:13.125Z,78.10
2019-01-25T08:47:41.534Z,78.14
2019-01-25T08:50:25.232Z,77.01
2019-01-25T08:52:53.770Z,76.42
2019-01-25T08:55:22.242Z,77.63
2019-01-25T08:57:50.606Z,76.64
2019-01-25T09:00:22.591Z,76.54
2019-01-25T09:02:50.985Z,77.66
2019-01-25T09:05:19.534Z,76.15
2019-01-25T09:07:47.879Z,76.90
2019-01-25T09:10:19.322Z,76.11
2019-01-25T09:12:47.864Z,77.48
2019-01-25T09:15:22.686Z,75.76
2019-01-25T09:17:51.610Z,76.50
2019-01-25T09:20:22.478Z,76.77
2019-01-25T09:22:50.851Z,77.07
2019-01-25T09:25:19.159Z,77.23
2019-01-25T09:27:48.229Z,76.41
2019-01-25T09:30:22.380Z,76.66
2019-01-25T09:32:50.828Z,76.57
2019-01-25T09:35:19.542Z,76.30
2019-01-25T09:37:48.375Z,75.27
2019-01-25T09:40:20.382Z,76.45
2019-01-25T09:42:48.726Z,76.37
2019-01-25T09:45:17.075Z,75.22
2019-01-25T09:47:45.529Z,76.03
2019-01-25T09:50:17.271Z,76.64
2019-01-25T09:52:45.682Z,76.86
2019-01-25T09:55:17.286Z,76.29
2019-01-25T09:57:45.651Z,76.40
2019-01-25T10:00:32.038Z,76.03
2019-01-25T10:03:00.438Z,77.67
2019-01-25T10:05:28.936Z,76.52
2019-01-25T10:07:57.292Z,78.24
2019-01-25T10:10:25.846Z,78.67
2019-01-25T10:12:54.193Z,78.39
2019-01-25T10:15:28.639Z,77.75
2019-01-25T10:17:57.131Z,76.48
2019-01-25T10:20:25.620Z,76.65
2019-01-25T10:22:53.921Z,77.79
2019-01-25T10:25:22.195Z,77.97
2019-01-25T10:27:50.684Z,79.27
2019-01-25T10:30:24.731Z,78.88
2019-01-25T10:32:53.151Z,77.89
2019-01-25T10:35:21.593Z,78.26
2019-01-25T10:37:50.181Z,77.59
2019-01-25T10:40:21.667Z,75.86
2019-01-25T10:42:53.497Z,74.89
2019-01-25T10:45:39.682Z,76.03
2019-01-25T10:48:09.709Z,77.47
2019-01-25T10:50:38.215Z,76.23
2019-01-25T10:53:08.746Z,76.04
2019-01-25T10:55:37.057Z,75.48
2019-01-25T10:58:06.219Z,76.11
2019-01-25T11:00:34.639Z,77.43
2019-01-25T11:03:03.011Z,78.04
2019-01-25T11:05:34.210Z,76.50
2019-01-25T11:08:02.763Z,76.18
2019-01-25T11:10:31.262Z,75.67
2019-01-25T11:13:00.995Z,76.38
2019-01-25T11:15:29.935Z,78.10
2019-01-25T11:17:58.279Z,79.66
2019-01-25T11:20:27.825Z,79.46
2019-01-25T11:22:56.214Z,78.69
2019-01-25T11:25:30.830Z,79.27
2019-01-25T11:27:59.263Z,79.95
2019-01-25T11:30:27.723Z,80.40
2019-01-25T11:32:56.160Z,79.44
2019-01-25T11:35:25.387Z,80.55
2019-01-25T11:37:53.923Z,80.62
2019-01-25T11:40:28.572Z,80.13
2019-01-25T11:42:57.667Z,82.29
2019-01-25T11:45:26.188Z,81.57
2019-01-25T11:47:55.298Z,82.21
2019-01-25T11:50:24.379Z,82.20
2019-01-25T11:52:52.782Z,81.88
2019-01-25T11:55:21.383Z,81.34
2019-01-25T11:57:50.028Z,79.79
2019-01-25T12:00:22.263Z,80.56
2019-01-25T12:02:50.947Z,81.35
2019-01-25T12:05:30.086Z,82.14
2019-01-25T12:07:59.047Z,81.64
2019-01-25T12:10:35.238Z,82.48
2019-01-25T12:13:04.684Z,82.80
2019-01-25T12:15:35.852Z,83.24
2019-01-25T12:18:06.340Z,82.24
2019-01-25T12:20:35.711Z,83.46
2019-01-25T12:23:04.066Z,83.67
2019-01-25T12:25:32.672Z,83.15
2019-01-25T12:28:05.312Z,84.19
2019-01-25T12:30:37.739Z,84.16
2019-01-25T12:33:03.996Z,84.01
2019-01-25T12:35:34.863Z,84.36
2019-01-25T12:38:03.157Z,83.88
2019-01-25T12:40:31.549Z,83.23
2019-01-25T12:42:59.995Z,83.55
2019-01-25T12:45:30.721Z,84.21
2019-01-25T12:47:59.187Z,85.12
2019-01-25T12:50:36.551Z,86.20
2019-01-25T12:53:07.682Z,86.85
2019-01-25T12:55:36.093Z,86.56
2019-01-25T12:58:05.376Z,86.81
2019-01-25T13:00:49.697Z,87.09
2019-01-25T13:03:18.929Z,87.64
2019-01-25T13:05:47.519Z,88.91
2019-01-25T13:08:15.958Z,89.48
2019-01-25T13:10:44.310Z,89.75
2019-01-25T13:13:12.712Z,90.14
2019-01-25T13:15:41.193Z,90.17
2019-01-25T13:18:09.773Z,90.64
2019-01-25T13:20:39.670Z,91.04
2019-01-25T13:23:08.578Z,91.31
2019-01-25T13:25:36.895Z,91.23
2019-01-25T13:28:05.436Z,91.35
2019-01-25T13:30:33.812Z,91.28
2019-01-25T13:33:02.388Z,91.76
2019-01-25T13:35:30.925Z,92.07
2019-01-25T13:37:59.793Z,92.19
2019-01-25T13:40:28.938Z,92.63
2019-01-25T13:42:57.452Z,92.98
2019-01-25T13:45:32.512Z,92.91
2019-01-25T13:48:01.049Z,93.06
2019-01-25T13:50:30.133Z,92.86
2019-01-25T13:52:58.414Z,92.82
2019-01-25T13:55:26.851Z,92.56
2019-01-25T13:57:55.237Z,92.50
2019-01-25T14:00:32.484Z,92.56
2019-01-25T14:03:00.923Z,92.70
2019-01-25T14:05:29.371Z,92.71
2019-01-25T14:07:57.813Z,93.13
2019-01-25T14:10:29.830Z,93.38
2019-01-25T14:12:58.399Z,93.34
2019-01-25T14:15:26.808Z,93.17
2019-01-25T14:17:55.157Z,93.49
2019-01-25T14:20:26.851Z,93.59
2019-01-25T14:22:55.332Z,93.83
2019-01-25T14:25:23.605Z,94.28
2019-01-25T14:27:52.118Z,94.07
2019-01-25T14:30:35.521Z,94.24
2019-01-25T14:33:04.950Z,94.16
2019-01-25T14:35:33.362Z,94.13
2019-01-25T14:38:01.702Z,94.20
2019-01-25T14:40:30.164Z,94.37
2019-01-25T14:42:58.461Z,94.35
2019-01-25T14:45:27.362Z,94.45
2019-01-25T14:47:55.872Z,94.46
2019-01-25T14:50:27.358Z,94.42
2019-01-25T14:52:55.835Z,94.48
2019-01-25T14:55:24.177Z,94.46
2019-01-25T14:57:52.533Z,94.56
2019-01-25T15:00:21.008Z,94.71
2019-01-25T15:02:49.431Z,94.63
2019-01-25T15:05:20.314Z,94.73
2019-01-25T15:07:48.618Z,94.84
2019-01-25T15:10:19.502Z,94.89
2019-01-25T15:12:48.758Z,95.06
2019-01-25T15:15:17.159Z,95.06
2019-01-25T15:17:45.431Z,95.07
2019-01-25T15:20:17.006Z,95.15
2019-01-25T15:22:45.332Z,95.39
2019-01-25T15:25:13.798Z,95.46
2019-01-25T15:27:42.281Z,95.60
2019-01-25T15:30:28.632Z,95.62
2019-01-25T15:32:57.012Z,95.71
2019-01-25T15:35:25.307Z,95.76
2019-01-25T15:37:53.612Z,95.84
2019-01-25T15:40:23.189Z,95.85
2019-01-25T15:42:51.501Z,95.88
2019-01-25T15:45:21.784Z,95.98
2019-01-25T15:47:50.416Z,96.12
2019-01-25T15:50:24.705Z,96.13
2019-01-25T15:52:53.293Z,96.11
2019-01-25T15:55:21.810Z,96.20
2019-01-25T15:57:50.281Z,96.24
2019-01-25T16:00:23.732Z,96.29
2019-01-25T16:02:52.282Z,96.39
2019-01-25T16:05:21.717Z,96.49
2019-01-25T16:07:50.191Z,96.58
2019-01-25T16:10:20.659Z,96.62
2019-01-25T16:12:49.182Z,96.65
2019-01-25T16:15:19.879Z,96.68
2019-01-25T16:17:48.192Z,96.84
2019-01-25T16:20:18.806Z,96.87
2019-01-25T16:22:49.392Z,96.82
2019-01-25T16:25:23.629Z,96.83
2019-01-25T16:27:51.955Z,96.82
2019-01-25T16:30:29.016Z,96.82
2019-01-25T16:32:58.279Z,96.84
2019-01-25T16:35:26.695Z,96.89
2019-01-25T16:37:55.317Z,96.86
2019-01-25T16:40:27.150Z,96.84
2019-01-25T16:42:55.752Z,96.82
2019-01-25T16:45:36.039Z,96.90
2019-01-25T16:48:04.712Z,96.82
2019-01-25T16:50:33.341Z,96.95
2019-01-25T16:53:01.964Z,96.93
2019-01-25T16:55:30.634Z,97.05
2019-01-25T16:57:59.232Z,97.07
2019-01-25T17:00:33.515Z,97.05
2019-01-25T17:03:04.367Z,97.12
2019-01-25T17:05:33.204Z,97.12
2019-01-25T17:08:01.854Z,97.18
2019-01-25T17:10:30.409Z,97.24
2019-01-25T17:13:03.535Z,97.81
2019-01-25T17:15:32.222Z,98.18
2019-01-25T17:18:00.648Z,98.41
2019-01-25T17:20:30.428Z,98.56
2019-01-25T17:22:58.839Z,98.68
2019-01-25T17:25:27.227Z,98.74
2019-01-25T17:27:55.722Z,98.75
2019-01-25T17:30:32.170Z,98.70
2019-01-25T17:33:01.837Z,98.72
2019-01-25T17:35:31.608Z,98.66
2019-01-25T17:38:00.040Z,98.60
2019-01-25T17:40:31.621Z,98.46
2019-01-25T17:43:00.044Z,98.32
2019-01-25T17:45:28.486Z,98.22
2019-01-25T17:47:56.876Z,98.07
2019-01-25T17:50:25.186Z,97.91
2019-01-25T17:52:53.633Z,97.83
2019-01-25T17:55:22.009Z,97.68
2019-01-25T17:57:50.491Z,97.58
2019-01-25T18:00:26.080Z,97.58
2019-01-25T18:02:54.386Z,97.50
2019-01-25T18:05:22.966Z,97.53
2019-01-25T18:07:51.263Z,97.55
2019-01-25T18:10:22.555Z,97.60
2019-01-25T18:12:51.072Z,97.69
2019-01-25T18:15:20.945Z,97.70
2019-01-25T18:17:51.384Z,97.82
2019-01-25T18:20:22.848Z,97.81
2019-01-25T18:22:51.608Z,97.81
2019-01-25T18:25:40.110Z,97.88
2019-01-25T18:28:18.856Z,97.85
2019-01-25T18:31:02.104Z,97.90
2019-01-25T18:33:31.324Z,97.92
2019-01-25T18:36:00.324Z,97.94
2019-01-25T18:38:29.223Z,97.97
2019-01-25T18:41:20.009Z,98.01
2019-01-25T18:43:48.764Z,98.06
2019-01-25T18:46:17.642Z,98.14
2019-01-25T18:48:56.526Z,98.16
2019-01-25T18:51:26.232Z,98.23
2019-01-25T18:53:55.111Z,98.27
2019-01-25T18:56:24.189Z,98.31
2019-01-25T18:58:58.041Z,98.32
2019-01-25T19:01:26.896Z,98.40
2019-01-25T19:03:56.864Z,98.41
2019-01-25T19:06:25.197Z,98.45
2019-01-25T19:08:54.066Z,98.45
2019-01-25T19:11:23.247Z,98.48
2019-01-25T19:13:51.591Z,98.50
2019-01-25T19:16:19.996Z,98.59
2019-01-25T19:18:48.296Z,98.56
2019-01-25T19:21:16.814Z,98.56
2019-01-25T19:23:45.149Z,98.63
2019-01-25T19:26:13.688Z,98.65
2019-01-25T19:28:41.992Z,98.65
2019-01-25T19:31:10.379Z,98.69
2019-01-25T19:33:38.704Z,98.76
2019-01-25T19:36:07.027Z,98.75
2019-01-25T19:38:35.386Z,98.83
2019-01-25T19:41:03.756Z,98.90
2019-01-25T19:43:32.153Z,98.91
2019-01-25T19:46:00.934Z,98.99
2019-01-25T19:48:29.230Z,98.99
2019-01-25T19:50:57.505Z,98.93
2019-01-25T19:53:25.825Z,98.96
2019-01-25T19:55:54.151Z,98.93
2019-01-25T19:58:22.512Z,98.95
2019-01-25T20:00:50.923Z,99.01
2019-01-25T20:03:19.376Z,99.08
2019-01-25T20:05:47.671Z,99.21
2019-01-25T20:08:16.084Z,99.29
2019-01-25T20:10:44.713Z,99.32
2019-01-25T20:13:13.087Z,99.35
2019-01-25T20:15:41.460Z,99.33
2019-01-25T20:18:09.978Z,99.35
2019-01-25T20:20:40.858Z,99.34
2019-01-25T20:23:09.225Z,99.37
2019-01-25T20:25:37.604Z,99.37
2019-01-25T20:28:08.428Z,99.40
2019-01-25T20:30:37.001Z,99.41
2019-01-25T20:33:05.914Z,99.44
2019-01-25T20:35:36.783Z,99.45
2019-01-25T20:38:05.573Z,99.40
2019-01-25T20:40:33.964Z,99.45
2019-01-25T20:43:02.841Z,99.46
2019-01-25T20:45:37.130Z,99.50
2019-01-25T20:48:05.735Z,99.45
2019-01-25T20:50:36.908Z,99.45
2019-01-25T20:53:07.472Z,99.47
2019-01-25T20:55:35.895Z,99.46
2019-01-25T20:58:04.524Z,99.42
2019-01-25T21:00:36.027Z,99.41
2019-01-25T21:03:05.562Z,99.44
2019-01-25T21:05:34.018Z,99.48
2019-01-25T21:08:02.345Z,99.48
2019-01-25T21:10:30.723Z,99.53
2019-01-25T21:12:59.031Z,99.57
2019-01-25T21:15:34.995Z,99.59
2019-01-25T21:17:58.921Z,99.62
2019-01-25T21:20:32.816Z,99.64
2019-01-25T21:23:01.240Z,99.64
2019-01-25T21:25:29.739Z,99.72
2019-01-25T21:27:58.028Z,99.70
2019-01-25T21:30:32.097Z,99.75
2019-01-25T21:33:00.361Z,99.69
2019-01-25T21:35:28.626Z,99.72
2019-01-25T21:37:57.022Z,99.77
2019-01-25T21:40:27.934Z,99.82
2019-01-25T21:42:56.207Z,99.88
2019-01-25T21:45:27.005Z,99.94
2019-01-25T21:47:55.334Z,100.00
2019-01-25T21:50:29.331Z,100.00
2019-01-25T21:52:57.618Z,100.00
2019-01-25T21:55:26.000Z,100.00
2019-01-25T21:57:54.431Z,100.00
2019-01-25T22:00:25.201Z,100.00
2019-01-25T22:02:53.540Z,100.00
2019-01-25T22:05:21.922Z,100.00
2019-01-25T22:07:50.196Z,100.00
2019-01-25T22:10:24.896Z,100.00
2019-01-25T22:12:53.299Z,100.00
2019-01-25T22:15:21.672Z,100.00
2019-01-25T22:17:50.062Z,100.00
2019-01-25T22:20:21.074Z,100.00
2019-01-25T22:22:49.410Z,100.00
2019-01-25T22:25:17.712Z,100.00
2019-01-25T22:27:48.528Z,100.00
2019-01-25T22:30:20.191Z,100.00
2019-01-25T22:32:48.511Z,100.00
2019-01-25T22:35:16.898Z,100.00
2019-01-25T22:37:45.233Z,100.00
2019-01-25T22:40:22.270Z,100.00
2019-01-25T22:42:50.703Z,100.00
2019-01-25T22:45:24.601Z,100.00
2019-01-25T22:47:52.968Z,100.00
2019-01-25T22:50:32.479Z,100.00
2019-01-25T22:53:00.776Z,100.00
2019-01-25T22:55:29.192Z,100.00
2019-01-25T22:57:57.471Z,100.00
2019-01-25T23:00:51.451Z,100.00
2019-01-25T23:03:42.154Z,100.00
2019-01-25T23:06:31.634Z,100.00
2019-01-25T23:09:05.026Z,100.00
2019-01-25T23:11:33.337Z,100.00
2019-01-25T23:14:01.716Z,100.00
2019-01-25T23:16:30.087Z,100.00
2019-01-25T23:18:58.396Z,100.00
2019-01-25T23:21:26.914Z,100.00
2019-01-25T23:23:55.242Z,100.00
2019-01-25T23:26:23.650Z,100.00
2019-01-25T23:28:51.928Z,100.00
2019-01-25T23:31:20.329Z,100.00
2019-01-25T23:33:48.615Z,100.00
2019-01-25T23:36:17.094Z,100.00
2019-01-25T23:38:45.354Z,100.00
2019-01-25T23:41:13.705Z,100.00
2019-01-25T23:43:42.694Z,100.00
2019-01-25T23:46:13.897Z,100.00
2019-01-25T23:48:43.433Z,100.00
2019-01-25T23:51:12.516Z,100.00
2019-01-25T23:53:40.977Z,100.00
2019-01-25T23:56:09.561Z,100.00
2019-01-25T23:58:38.009Z,100.00
